sensor_id;sensor_type;location;lat;lon;timestamp;pressure;altitude;pressure_sealevel;temperature;humidity
62122;BME280;48108;47.532;19.084;2023-05-08T04:04:38;100949.06;;;10.25;84.18
62122;BME280;48108;47.532;19.084;2023-05-08T04:07:47;100954.69;;;10.32;84.90
62122;BME280;48108;47.532;19.084;2023-05-08T04:14:28;100960.13;;;10.48;83.60
62122;BME280;48108;47.532;19.084;2023-05-08T04:17:38;100958.94;;;10.42;82.94
62122;BME280;48108;47.532;19.084;2023-05-08T04:20:46;100969.09;;;10.57;81.97
62122;BME280;48108;47.532;19.084;2023-05-08T04:23:51;100979.00;;;10.56;81.18
62122;BME280;48108;47.532;19.084;2023-05-08T04:26:56;100982.19;;;10.52;78.22
62122;BME280;48108;47.532;19.084;2023-05-08T04:29:59;100983.25;;;10.67;78.95
62122;BME280;48108;47.532;19.084;2023-05-08T04:33:04;100986.66;;;10.77;77.80
62122;BME280;48108;47.532;19.084;2023-05-08T04:36:10;100993.19;;;10.75;75.14
62122;BME280;48108;47.532;19.084;2023-05-08T04:39:14;100994.56;;;10.71;73.60
62122;BME280;48108;47.532;19.084;2023-05-08T04:42:18;101000.81;;;10.79;74.24
62122;BME280;48108;47.532;19.084;2023-05-08T04:45:22;101001.66;;;10.80;74.06
62122;BME280;48108;47.532;19.084;2023-05-08T04:48:25;101012.41;;;10.80;73.26
62122;BME280;48108;47.532;19.084;2023-05-08T04:51:29;101010.34;;;10.65;74.00
62122;BME280;48108;47.532;19.084;2023-05-08T04:54:34;101016.28;;;10.77;73.54
62122;BME280;48108;47.532;19.084;2023-05-08T04:57:37;101025.56;;;10.83;73.88
62122;BME280;48108;47.532;19.084;2023-05-08T05:00:40;101028.47;;;10.98;73.41
62122;BME280;48108;47.532;19.084;2023-05-08T05:03:43;101028.09;;;10.93;73.56
62122;BME280;48108;47.532;19.084;2023-05-08T05:06:46;101028.69;;;10.70;73.13
62122;BME280;48108;47.532;19.084;2023-05-08T05:09:49;101030.44;;;10.79;73.54
62122;BME280;48108;47.532;19.084;2023-05-08T05:12:52;101031.84;;;11.00;73.52
62122;BME280;48108;47.532;19.084;2023-05-08T05:15:58;101028.31;;;11.07;73.54
62122;BME280;48108;47.532;19.084;2023-05-08T05:19:01;101035.75;;;11.22;72.96
62122;BME280;48108;47.532;19.084;2023-05-08T05:22:04;101037.22;;;11.08;70.03
62122;BME280;48108;47.532;19.084;2023-05-08T05:25:10;101035.69;;;10.97;71.11
62122;BME280;48108;47.532;19.084;2023-05-08T05:28:14;101039.47;;;11.21;69.80
62122;BME280;48108;47.532;19.084;2023-05-08T05:31:17;101042.16;;;11.29;69.07
62122;BME280;48108;47.532;19.084;2023-05-08T05:34:21;101042.50;;;11.34;69.77
62122;BME280;48108;47.532;19.084;2023-05-08T05:37:25;101039.12;;;11.40;69.37
62122;BME280;48108;47.532;19.084;2023-05-08T05:40:28;101051.31;;;11.52;67.04
62122;BME280;48108;47.532;19.084;2023-05-08T05:43:32;101052.12;;;11.45;67.70
62122;BME280;48108;47.532;19.084;2023-05-08T05:46:35;101056.84;;;11.51;67.90
62122;BME280;48108;47.532;19.084;2023-05-08T05:49:38;101061.06;;;11.53;66.99
62122;BME280;48108;47.532;19.084;2023-05-08T05:52:44;101058.19;;;11.47;66.33
62122;BME280;48108;47.532;19.084;2023-05-08T05:55:47;101056.69;;;11.44;65.46
62122;BME280;48108;47.532;19.084;2023-05-08T05:58:50;101060.37;;;11.51;65.29
62122;BME280;48108;47.532;19.084;2023-05-08T06:01:53;101066.47;;;11.62;64.81
62122;BME280;48108;47.532;19.084;2023-05-08T06:04:56;101063.09;;;11.76;64.17
62122;BME280;48108;47.532;19.084;2023-05-08T06:07:59;101062.25;;;11.75;64.45
62122;BME280;48108;47.532;19.084;2023-05-08T06:11:03;101063.59;;;11.96;64.19
62122;BME280;48108;47.532;19.084;2023-05-08T06:14:06;101064.09;;;11.83;63.32
62122;BME280;48108;47.532;19.084;2023-05-08T06:17:10;101060.72;;;11.48;63.62
62122;BME280;48108;47.532;19.084;2023-05-08T06:20:13;101062.06;;;11.69;64.02
62122;BME280;48108;47.532;19.084;2023-05-08T06:23:16;101056.03;;;11.91;63.02
62122;BME280;48108;47.532;19.084;2023-05-08T06:26:18;101058.53;;;12.09;63.05
62122;BME280;48108;47.532;19.084;2023-05-08T06:29:27;101065.13;;;12.23;61.98
62122;BME280;48108;47.532;19.084;2023-05-08T06:32:30;101064.69;;;12.51;61.20
62122;BME280;48108;47.532;19.084;2023-05-08T06:35:33;101071.34;;;12.32;62.32
62122;BME280;48108;47.532;19.084;2023-05-08T06:38:35;101070.28;;;12.49;61.32
62122;BME280;48108;47.532;19.084;2023-05-08T06:41:39;101068.78;;;12.46;61.01
62122;BME280;48108;47.532;19.084;2023-05-08T06:44:41;101068.06;;;12.53;61.04
62122;BME280;48108;47.532;19.084;2023-05-08T06:47:47;101073.00;;;12.88;59.95
62122;BME280;48108;47.532;19.084;2023-05-08T06:50:50;101079.38;;;12.96;59.68
62122;BME280;48108;47.532;19.084;2023-05-08T06:53:53;101073.34;;;12.85;60.33
62122;BME280;48108;47.532;19.084;2023-05-08T06:56:56;101076.09;;;13.08;60.12
62122;BME280;48108;47.532;19.084;2023-05-08T06:59:59;101083.03;;;13.42;59.09
62122;BME280;48108;47.532;19.084;2023-05-08T07:03:02;101081.22;;;13.80;57.37
62122;BME280;48108;47.532;19.084;2023-05-08T07:06:09;101084.94;;;14.02;55.82
62122;BME280;48108;47.532;19.084;2023-05-08T07:09:12;101095.19;;;13.69;56.91
62122;BME280;48108;47.532;19.084;2023-05-08T07:12:15;101083.53;;;14.06;56.06
62122;BME280;48108;47.532;19.084;2023-05-08T07:15:18;101079.38;;;13.81;56.71
62122;BME280;48108;47.532;19.084;2023-05-08T07:18:28;101085.31;;;13.99;56.33
62122;BME280;48108;47.532;19.084;2023-05-08T07:21:31;101087.03;;;13.92;55.91
62122;BME280;48108;47.532;19.084;2023-05-08T07:24:34;101075.81;;;13.80;56.29
62122;BME280;48108;47.532;19.084;2023-05-08T07:27:37;101087.16;;;14.37;56.10
62122;BME280;48108;47.532;19.084;2023-05-08T07:30:40;101087.19;;;14.66;54.15
62122;BME280;48108;47.532;19.084;2023-05-08T07:33:43;101079.28;;;14.42;52.86
62122;BME280;48108;47.532;19.084;2023-05-08T07:36:46;101081.75;;;14.81;52.75
62122;BME280;48108;47.532;19.084;2023-05-08T07:39:48;101088.06;;;14.44;53.51
62122;BME280;48108;47.532;19.084;2023-05-08T07:42:52;101086.25;;;14.59;54.12
62122;BME280;48108;47.532;19.084;2023-05-08T07:45:54;101083.72;;;14.72;52.37
62122;BME280;48108;47.532;19.084;2023-05-08T07:48:58;101080.59;;;15.05;51.69
62122;BME280;48108;47.532;19.084;2023-05-08T07:52:00;101090.78;;;15.03;53.22
62122;BME280;48108;47.532;19.084;2023-05-08T07:55:04;101090.13;;;15.16;50.94
62122;BME280;48108;47.532;19.084;2023-05-08T07:58:08;101093.28;;;15.19;50.98
62122;BME280;48108;47.532;19.084;2023-05-08T08:01:11;101076.28;;;15.11;51.62
62122;BME280;48108;47.532;19.084;2023-05-08T08:04:14;101084.16;;;15.42;51.92
62122;BME280;48108;47.532;19.084;2023-05-08T08:07:17;101076.25;;;15.47;50.91
62122;BME280;48108;47.532;19.084;2023-05-08T08:10:20;101081.69;;;15.47;52.42
62122;BME280;48108;47.532;19.084;2023-05-08T08:13:23;101085.22;;;15.62;51.57
62122;BME280;48108;47.532;19.084;2023-05-08T08:16:26;101080.69;;;15.70;50.47
62122;BME280;48108;47.532;19.084;2023-05-08T08:19:32;101071.06;;;15.89;50.49
62122;BME280;48108;47.532;19.084;2023-05-08T08:22:36;101081.00;;;15.81;49.37
62122;BME280;48108;47.532;19.084;2023-05-08T08:25:39;101076.84;;;16.07;49.61
62122;BME280;48108;47.532;19.084;2023-05-08T08:28:42;101074.75;;;16.37;48.46
62122;BME280;48108;47.532;19.084;2023-05-08T08:31:45;101067.41;;;16.31;47.99
62122;BME280;48108;47.532;19.084;2023-05-08T08:34:48;101065.22;;;16.48;47.55
62122;BME280;48108;47.532;19.084;2023-05-08T08:37:50;101068.03;;;16.26;49.11
62122;BME280;48108;47.532;19.084;2023-05-08T08:40:54;101069.06;;;16.60;47.39
62122;BME280;48108;47.532;19.084;2023-05-08T08:43:56;101068.28;;;16.73;46.21
62122;BME280;48108;47.532;19.084;2023-05-08T08:47:04;101067.53;;;16.51;46.69
62122;BME280;48108;47.532;19.084;2023-05-08T08:50:07;101064.56;;;16.46;45.51
62122;BME280;48108;47.532;19.084;2023-05-08T08:53:25;101061.88;;;16.81;46.10
62122;BME280;48108;47.532;19.084;2023-05-08T08:56:29;101056.31;;;17.02;44.37
62122;BME280;48108;47.532;19.084;2023-05-08T08:59:33;101064.66;;;16.94;44.28
62122;BME280;48108;47.532;19.084;2023-05-08T09:02:36;101066.44;;;17.28;43.23
62122;BME280;48108;47.532;19.084;2023-05-08T09:05:40;101058.97;;;17.63;42.83
62122;BME280;48108;47.532;19.084;2023-05-08T09:08:43;101059.78;;;17.44;41.27
62122;BME280;48108;47.532;19.084;2023-05-08T09:11:47;101060.81;;;17.36;41.85
62122;BME280;48108;47.532;19.084;2023-05-08T09:14:50;101050.78;;;17.43;41.50
62122;BME280;48108;47.532;19.084;2023-05-08T09:17:53;101043.06;;;17.74;40.41
62122;BME280;48108;47.532;19.084;2023-05-08T09:20:56;101042.03;;;17.68;41.02
62122;BME280;48108;47.532;19.084;2023-05-08T09:24:03;101038.25;;;17.76;43.10
62122;BME280;48108;47.532;19.084;2023-05-08T09:27:19;101048.53;;;17.80;40.41
62122;BME280;48108;47.532;19.084;2023-05-08T09:30:23;101057.13;;;18.17;40.08
62122;BME280;48108;47.532;19.084;2023-05-08T09:33:27;101041.44;;;17.79;39.60
62122;BME280;48108;47.532;19.084;2023-05-08T09:36:30;101047.94;;;18.05;40.29
62122;BME280;48108;47.532;19.084;2023-05-08T09:39:33;101044.31;;;18.38;40.89
62122;BME280;48108;47.532;19.084;2023-05-08T09:42:37;101045.09;;;18.51;40.48
62122;BME280;48108;47.532;19.084;2023-05-08T09:45:40;101050.19;;;18.41;39.94
62122;BME280;48108;47.532;19.084;2023-05-08T09:48:44;101038.88;;;18.24;39.97
62122;BME280;48108;47.532;19.084;2023-05-08T09:51:51;101039.66;;;18.45;39.96
62122;BME280;48108;47.532;19.084;2023-05-08T09:55:05;101039.28;;;18.34;39.45
62122;BME280;48108;47.532;19.084;2023-05-08T09:58:09;101040.72;;;18.44;40.17
62122;BME280;48108;47.532;19.084;2023-05-08T10:01:32;101033.28;;;18.77;39.46
62122;BME280;48108;47.532;19.084;2023-05-08T10:04:36;101024.53;;;19.14;39.99
62122;BME280;48108;47.532;19.084;2023-05-08T10:07:39;101034.69;;;19.00;38.70
62122;BME280;48108;47.532;19.084;2023-05-08T10:10:43;101031.62;;;19.53;38.36
62122;BME280;48108;47.532;19.084;2023-05-08T10:13:46;101026.47;;;19.38;37.71
62122;BME280;48108;47.532;19.084;2023-05-08T10:16:50;101023.53;;;19.40;37.76
62122;BME280;48108;47.532;19.084;2023-05-08T10:20:01;101013.47;;;19.72;37.96
62122;BME280;48108;47.532;19.084;2023-05-08T10:23:10;101007.56;;;19.75;36.84
62122;BME280;48108;47.532;19.084;2023-05-08T10:26:26;101014.53;;;20.14;37.86
62122;BME280;48108;47.532;19.084;2023-05-08T10:29:46;101004.50;;;20.27;36.65
62122;BME280;48108;47.532;19.084;2023-05-08T10:32:55;101011.28;;;20.79;34.87
62122;BME280;48108;47.532;19.084;2023-05-08T10:36:02;100992.87;;;20.56;34.72
62122;BME280;48108;47.532;19.084;2023-05-08T10:39:07;100998.16;;;20.33;35.32
62122;BME280;48108;47.532;19.084;2023-05-08T10:42:14;100997.34;;;20.69;33.93
62122;BME280;48108;47.532;19.084;2023-05-08T10:45:17;100987.06;;;20.65;34.22
62122;BME280;48108;47.532;19.084;2023-05-08T10:52:05;100980.06;;;21.59;32.33
62122;BME280;48108;47.532;19.084;2023-05-08T10:55:27;100982.13;;;21.34;31.61
62122;BME280;48108;47.532;19.084;2023-05-08T10:58:37;100984.62;;;21.77;33.50
62122;BME280;48108;47.532;19.084;2023-05-08T11:01:46;100973.50;;;22.42;30.63
62122;BME280;48108;47.532;19.084;2023-05-08T11:04:49;100985.78;;;23.21;32.13
62122;BME280;48108;47.532;19.084;2023-05-08T11:07:57;100981.38;;;23.37;30.88
62122;BME280;48108;47.532;19.084;2023-05-08T11:11:04;100987.34;;;22.88;30.31
62122;BME280;48108;47.532;19.084;2023-05-08T11:14:13;100972.72;;;23.11;30.14
62122;BME280;48108;47.532;19.084;2023-05-08T11:17:22;100967.09;;;23.85;29.90
62122;BME280;48108;47.532;19.084;2023-05-08T11:20:35;100957.62;;;24.15;29.44
62122;BME280;48108;47.532;19.084;2023-05-08T11:23:39;100970.22;;;25.21;29.02
62122;BME280;48108;47.532;19.084;2023-05-08T11:26:47;100963.69;;;25.64;25.94
62122;BME280;48108;47.532;19.084;2023-05-08T11:33:30;100957.59;;;27.92;23.48
62122;BME280;48108;47.532;19.084;2023-05-08T11:36:37;100957.91;;;28.60;23.82
62122;BME280;48108;47.532;19.084;2023-05-08T11:39:40;100954.09;;;28.51;23.53
62122;BME280;48108;47.532;19.084;2023-05-08T11:42:43;100963.34;;;28.11;23.89
62122;BME280;48108;47.532;19.084;2023-05-08T11:45:46;100951.53;;;27.44;24.22
62122;BME280;48108;47.532;19.084;2023-05-08T11:48:57;100954.25;;;29.88;23.60
62122;BME280;48108;47.532;19.084;2023-05-08T12:00:14;100961.25;;;31.01;20.49
62122;BME280;48108;47.532;19.084;2023-05-08T12:03:20;100957.47;;;30.91;20.44
62122;BME280;48108;47.532;19.084;2023-05-08T12:06:23;100952.81;;;31.06;19.27
62122;BME280;48108;47.532;19.084;2023-05-08T12:09:26;100934.44;;;31.75;19.24
62122;BME280;48108;47.532;19.084;2023-05-08T12:12:40;100931.44;;;33.41;18.94
62122;BME280;48108;47.532;19.084;2023-05-08T12:15:44;100944.16;;;33.11;18.09
62122;BME280;48108;47.532;19.084;2023-05-08T12:18:51;100947.28;;;33.09;18.39
62122;BME280;48108;47.532;19.084;2023-05-08T12:21:55;100943.88;;;34.20;18.46
62122;BME280;48108;47.532;19.084;2023-05-08T12:24:58;100934.31;;;35.04;16.13
62122;BME280;48108;47.532;19.084;2023-05-08T12:28:01;100948.03;;;35.23;16.36
62122;BME280;48108;47.532;19.084;2023-05-08T12:31:05;100949.16;;;34.87;15.95
62122;BME280;48108;47.532;19.084;2023-05-08T12:34:08;100950.53;;;33.48;17.24
62122;BME280;48108;47.532;19.084;2023-05-08T12:37:22;100935.56;;;34.37;17.48
62122;BME280;48108;47.532;19.084;2023-05-08T12:40:34;100941.41;;;33.56;16.61
62122;BME280;48108;47.532;19.084;2023-05-08T12:43:37;100932.94;;;36.18;15.60
62122;BME280;48108;47.532;19.084;2023-05-08T12:46:45;100932.72;;;35.94;15.17
62122;BME280;48108;47.532;19.084;2023-05-08T12:49:49;100947.06;;;33.64;15.07
62122;BME280;48108;47.532;19.084;2023-05-08T12:52:52;100947.47;;;33.58;15.55
62122;BME280;48108;47.532;19.084;2023-05-08T12:55:57;100951.13;;;34.69;15.33
62122;BME280;48108;47.532;19.084;2023-05-08T12:59:00;100938.56;;;36.48;14.04
62122;BME280;48108;47.532;19.084;2023-05-08T13:02:10;100948.31;;;37.67;13.35
62122;BME280;48108;47.532;19.084;2023-05-08T13:05:18;100946.59;;;37.42;13.80
62122;BME280;48108;47.532;19.084;2023-05-08T13:08:42;100946.28;;;37.22;13.68
62122;BME280;48108;47.532;19.084;2023-05-08T13:11:44;100949.13;;;35.48;14.81
62122;BME280;48108;47.532;19.084;2023-05-08T13:14:47;100954.59;;;33.95;15.33
62122;BME280;48108;47.532;19.084;2023-05-08T13:17:50;100941.81;;;35.82;15.09
62122;BME280;48108;47.532;19.084;2023-05-08T13:20:54;100937.47;;;37.45;13.52
62122;BME280;48108;47.532;19.084;2023-05-08T13:23:57;100950.16;;;37.51;13.58
62122;BME280;48108;47.532;19.084;2023-05-08T13:27:00;100944.28;;;36.60;14.12
62122;BME280;48108;47.532;19.084;2023-05-08T13:30:04;100942.84;;;36.24;13.26
62122;BME280;48108;47.532;19.084;2023-05-08T13:33:07;100955.69;;;36.25;11.96
62122;BME280;48108;47.532;19.084;2023-05-08T13:36:10;100953.62;;;34.40;13.95
62122;BME280;48108;47.532;19.084;2023-05-08T13:39:13;100954.25;;;34.28;14.10
62122;BME280;48108;47.532;19.084;2023-05-08T13:42:16;100950.25;;;34.69;14.09
62122;BME280;48108;47.532;19.084;2023-05-08T13:45:19;100959.19;;;35.40;13.97
62122;BME280;48108;47.532;19.084;2023-05-08T13:48:22;100953.28;;;35.25;13.60
62122;BME280;48108;47.532;19.084;2023-05-08T13:51:26;100954.44;;;34.31;14.07
62122;BME280;48108;47.532;19.084;2023-05-08T13:54:29;100947.09;;;33.51;13.49
62122;BME280;48108;47.532;19.084;2023-05-08T13:57:32;100950.03;;;33.23;13.69
62122;BME280;48108;47.532;19.084;2023-05-08T14:00:35;100949.50;;;31.88;14.52
62122;BME280;48108;47.532;19.084;2023-05-08T14:03:38;100943.03;;;31.93;14.50
62122;BME280;48108;47.532;19.084;2023-05-08T14:06:41;100951.31;;;31.98;15.91
62122;BME280;48108;47.532;19.084;2023-05-08T14:09:47;100948.28;;;30.29;15.87
62122;BME280;48108;47.532;19.084;2023-05-08T14:12:50;100947.72;;;29.05;18.18
62122;BME280;48108;47.532;19.084;2023-05-08T14:15:53;100949.72;;;26.81;18.44
62122;BME280;48108;47.532;19.084;2023-05-08T14:18:59;100955.59;;;25.52;19.51
62122;BME280;48108;47.532;19.084;2023-05-08T14:22:03;100962.66;;;24.01;21.05
62122;BME280;48108;47.532;19.084;2023-05-08T14:25:06;100964.19;;;22.84;22.48
62122;BME280;48108;47.532;19.084;2023-05-08T14:28:10;100958.53;;;22.62;23.35
62122;BME280;48108;47.532;19.084;2023-05-08T14:31:13;100967.81;;;22.32;24.05
62122;BME280;48108;47.532;19.084;2023-05-08T14:34:16;100962.69;;;21.65;24.82
62122;BME280;48108;47.532;19.084;2023-05-08T14:37:19;100968.72;;;21.56;23.80
62122;BME280;48108;47.532;19.084;2023-05-08T14:40:22;100972.91;;;20.86;23.46
62122;BME280;48108;47.532;19.084;2023-05-08T14:43:26;100970.34;;;20.73;23.10
62122;BME280;48108;47.532;19.084;2023-05-08T14:46:29;100974.97;;;20.35;23.68
62122;BME280;48108;47.532;19.084;2023-05-08T14:49:32;100967.75;;;20.41;22.16
62122;BME280;48108;47.532;19.084;2023-05-08T14:52:40;100973.38;;;20.46;21.25
62122;BME280;48108;47.532;19.084;2023-05-08T14:55:43;100969.00;;;20.64;21.25
62122;BME280;48108;47.532;19.084;2023-05-08T14:58:46;100969.66;;;20.59;22.11
62122;BME280;48108;47.532;19.084;2023-05-08T15:01:49;100966.00;;;20.47;22.35
62122;BME280;48108;47.532;19.084;2023-05-08T15:04:52;100970.78;;;19.96;22.97
62122;BME280;48108;47.532;19.084;2023-05-08T15:07:55;100961.06;;;20.00;23.23
62122;BME280;48108;47.532;19.084;2023-05-08T15:10:59;100965.59;;;19.63;24.58
62122;BME280;48108;47.532;19.084;2023-05-08T15:14:02;100970.72;;;19.53;24.78
62122;BME280;48108;47.532;19.084;2023-05-08T15:17:06;100971.69;;;19.33;25.00
62122;BME280;48108;47.532;19.084;2023-05-08T15:20:09;100961.44;;;19.29;25.21
62122;BME280;48108;47.532;19.084;2023-05-08T15:23:12;100963.91;;;19.05;25.12
62122;BME280;48108;47.532;19.084;2023-05-08T15:26:14;100963.09;;;18.98;24.70
62122;BME280;48108;47.532;19.084;2023-05-08T15:29:17;100965.75;;;18.73;26.98
62122;BME280;48108;47.532;19.084;2023-05-08T15:32:20;100966.81;;;18.65;27.49
62122;BME280;48108;47.532;19.084;2023-05-08T15:35:23;100967.09;;;18.50;28.39
62122;BME280;48108;47.532;19.084;2023-05-08T15:38:26;100971.12;;;18.34;28.65
62122;BME280;48108;47.532;19.084;2023-05-08T15:41:29;100965.84;;;18.46;28.91
62122;BME280;48108;47.532;19.084;2023-05-08T15:44:32;100976.16;;;18.38;29.99
62122;BME280;48108;47.532;19.084;2023-05-08T15:47:55;100972.66;;;18.17;31.60
62122;BME280;48108;47.532;19.084;2023-05-08T15:50:58;100981.25;;;18.14;32.23
62122;BME280;48108;47.532;19.084;2023-05-08T15:54:01;100972.28;;;17.94;33.01
62122;BME280;48108;47.532;19.084;2023-05-08T15:57:04;100973.31;;;17.86;33.06
62122;BME280;48108;47.532;19.084;2023-05-08T16:00:08;100964.31;;;17.85;33.06
62122;BME280;48108;47.532;19.084;2023-05-08T16:03:11;100967.25;;;17.84;33.24
62122;BME280;48108;47.532;19.084;2023-05-08T16:06:14;100972.69;;;17.84;33.69
62122;BME280;48108;47.532;19.084;2023-05-08T16:09:18;100972.03;;;17.68;34.13
